sensor_id;sensor_type;location;lat;lon;timestamp;pressure;altitude;pressure_sealevel;temperature;humidity
55068;BME280;40965;52.368;9.712;2022-11-30T00:01:21;101444.13;;;4.55;100.00
55068;BME280;40965;52.368;9.712;2022-11-30T00:03:53;101442.47;;;4.57;100.00
55068;BME280;40965;52.368;9.712;2022-11-30T00:06:21;101438.16;;;4.57;100.00
55068;BME280;40965;52.368;9.712;2022-11-30T00:08:56;101444.25;;;4.59;100.00
55068;BME280;40965;52.368;9.712;2022-11-30T00:11:25;101444.31;;;4.61;100.00
55068;BME280;40965;52.368;9.712;2022-11-30T00:13:53;101445.09;;;4.58;100.00
55068;BME280;40965;52.368;9.712;2022-11-30T00:16:20;101440.81;;;4.59;100.00
55068;BME280;40965;52.368;9.712;2022-11-30T00:18:47;101446.06;;;4.62;100.00
55068;BME280;40965;52.368;9.712;2022-11-30T00:21:15;101450.31;;;4.60;100.00
55068;BME280;40965;52.368;9.712;2022-11-30T00:23:44;101446.81;;;4.58;100.00
55068;BME280;40965;52.368;9.712;2022-11-30T00:26:16;101454.59;;;4.58;100.00
55068;BME280;40965;52.368;9.712;2022-11-30T00:28:46;101460.53;;;4.54;100.00
55068;BME280;40965;52.368;9.712;2022-11-30T00:31:15;101457.88;;;4.52;100.00
55068;BME280;40965;52.368;9.712;2022-11-30T00:33:42;101446.50;;;4.47;100.00
55068;BME280;40965;52.368;9.712;2022-11-30T00:36:12;101454.19;;;4.44;100.00
55068;BME280;40965;52.368;9.712;2022-11-30T00:38:40;101450.72;;;4.43;100.00
55068;BME280;40965;52.368;9.712;2022-11-30T00:41:07;101452.34;;;4.40;100.00
55068;BME280;40965;52.368;9.712;2022-11-30T00:43:41;101453.19;;;4.39;100.00
55068;BME280;40965;52.368;9.712;2022-11-30T00:46:08;101454.13;;;4.41;100.00
55068;BME280;40965;52.368;9.712;2022-11-30T00:48:36;101451.53;;;4.41;100.00
55068;BME280;40965;52.368;9.712;2022-11-30T00:51:08;101450.53;;;4.37;100.00
55068;BME280;40965;52.368;9.712;2022-11-30T00:53:36;101447.94;;;4.37;100.00
55068;BME280;40965;52.368;9.712;2022-11-30T00:56:07;101451.41;;;4.38;100.00
55068;BME280;40965;52.368;9.712;2022-11-30T00:58:34;101447.00;;;4.35;100.00
55068;BME280;40965;52.368;9.712;2022-11-30T01:01:04;101454.75;;;4.34;100.00
55068;BME280;40965;52.368;9.712;2022-11-30T01:03:37;101449.66;;;4.37;100.00
55068;BME280;40965;52.368;9.712;2022-11-30T01:06:33;101452.19;;;4.35;100.00
55068;BME280;40965;52.368;9.712;2022-11-30T01:09:19;101447.88;;;4.34;100.00
55068;BME280;40965;52.368;9.712;2022-11-30T01:11:51;101451.38;;;4.36;100.00
55068;BME280;40965;52.368;9.712;2022-11-30T01:14:46;101457.38;;;4.35;100.00
55068;BME280;40965;52.368;9.712;2022-11-30T01:17:16;101453.88;;;4.33;100.00
55068;BME280;40965;52.368;9.712;2022-11-30T01:19:42;101453.88;;;4.33;100.00
55068;BME280;40965;52.368;9.712;2022-11-30T01:24:57;101458.13;;;4.31;100.00
55068;BME280;40965;52.368;9.712;2022-11-30T01:27:41;101460.72;;;4.31;100.00
55068;BME280;40965;52.368;9.712;2022-11-30T01:30:12;101459.84;;;4.30;100.00
55068;BME280;40965;52.368;9.712;2022-11-30T01:32:40;101454.69;;;4.30;100.00
55068;BME280;40965;52.368;9.712;2022-11-30T01:35:08;101458.13;;;4.31;100.00
55068;BME280;40965;52.368;9.712;2022-11-30T01:37:35;101459.91;;;4.32;100.00
55068;BME280;40965;52.368;9.712;2022-11-30T01:40:01;101453.94;;;4.35;100.00
55068;BME280;40965;52.368;9.712;2022-11-30T01:42:28;101454.81;;;4.37;100.00
55068;BME280;40965;52.368;9.712;2022-11-30T01:44:58;101461.78;;;4.38;100.00
55068;BME280;40965;52.368;9.712;2022-11-30T01:47:31;101457.50;;;4.38;100.00
55068;BME280;40965;52.368;9.712;2022-11-30T01:50:08;101466.97;;;4.38;100.00
55068;BME280;40965;52.368;9.712;2022-11-30T01:52:40;101466.03;;;4.34;100.00
55068;BME280;40965;52.368;9.712;2022-11-30T01:55:19;101461.69;;;4.35;100.00
55068;BME280;40965;52.368;9.712;2022-11-30T01:57:50;101469.44;;;4.33;100.00
55068;BME280;40965;52.368;9.712;2022-11-30T02:00:20;101465.94;;;4.33;100.00
55068;BME280;40965;52.368;9.712;2022-11-30T02:02:52;101468.63;;;4.34;100.00
55068;BME280;40965;52.368;9.712;2022-11-30T02:05:20;101465.13;;;4.34;100.00
55068;BME280;40965;52.368;9.712;2022-11-30T02:07:47;101459.91;;;4.32;100.00
55068;BME280;40965;52.368;9.712;2022-11-30T02:10:17;101463.34;;;4.33;100.00
55068;BME280;40965;52.368;9.712;2022-11-30T02:13:35;101465.94;;;4.33;100.00
55068;BME280;40965;52.368;9.712;2022-11-30T02:15:59;101460.72;;;4.31;100.00
55068;BME280;40965;52.368;9.712;2022-11-30T02:21:45;101459.75;;;4.27;100.00
55068;BME280;40965;52.368;9.712;2022-11-30T02:24:32;101466.69;;;4.28;100.00
55068;BME280;40965;52.368;9.712;2022-11-30T02:27:36;101469.28;;;4.28;100.00
55068;BME280;40965;52.368;9.712;2022-11-30T02:30:10;101465.84;;;4.28;100.00
55068;BME280;40965;52.368;9.712;2022-11-30T02:32:54;101459.81;;;4.29;100.00
55068;BME280;40965;52.368;9.712;2022-11-30T02:35:28;101465.91;;;4.31;100.00
55068;BME280;40965;52.368;9.712;2022-11-30T02:37:58;101456.31;;;4.28;100.00
55068;BME280;40965;52.368;9.712;2022-11-30T02:40:26;101459.81;;;4.29;100.00
55068;BME280;40965;52.368;9.712;2022-11-30T02:42:54;101465.84;;;4.28;100.00
55068;BME280;40965;52.368;9.712;2022-11-30T02:48:07;101452.81;;;4.26;100.00
55068;BME280;40965;52.368;9.712;2022-11-30T02:50:40;101457.16;;;4.27;100.00
55068;BME280;40965;52.368;9.712;2022-11-30T02:53:09;101463.28;;;4.29;100.00
55068;BME280;40965;52.368;9.712;2022-11-30T02:55:36;101455.50;;;4.29;100.00
55068;BME280;40965;52.368;9.712;2022-11-30T02:58:03;101453.88;;;4.33;100.00
55068;BME280;40965;52.368;9.712;2022-11-30T03:00:30;101464.34;;;4.36;100.00
55068;BME280;40965;52.368;9.712;2022-11-30T03:02:57;101461.75;;;4.36;100.00
55068;BME280;40965;52.368;9.712;2022-11-30T03:05:24;101468.63;;;4.34;100.00
55068;BME280;40965;52.368;9.712;2022-11-30T03:07:50;101469.44;;;4.33;100.00
55068;BME280;40965;52.368;9.712;2022-11-30T03:10:17;101463.34;;;4.33;100.00
55068;BME280;40965;52.368;9.712;2022-11-30T03:12:44;101464.25;;;4.33;100.00
55068;BME280;40965;52.368;9.712;2022-11-30T03:15:10;101465.94;;;4.33;100.00
55068;BME280;40965;52.368;9.712;2022-11-30T03:17:37;101463.31;;;4.31;100.00
55068;BME280;40965;52.368;9.712;2022-11-30T03:20:04;101473.69;;;4.31;100.00
55068;BME280;40965;52.368;9.712;2022-11-30T03:22:31;101477.19;;;4.32;100.00
55068;BME280;40965;52.368;9.712;2022-11-30T03:24:57;101475.56;;;4.37;100.00
55068;BME280;40965;52.368;9.712;2022-11-30T03:27:24;101472.97;;;4.37;100.00
55068;BME280;40965;52.368;9.712;2022-11-30T03:29:51;101476.53;;;4.40;100.00
55068;BME280;40965;52.368;9.712;2022-11-30T03:32:19;101478.28;;;4.40;100.00
55068;BME280;40965;52.368;9.712;2022-11-30T03:34:46;101483.50;;;4.41;100.00
55068;BME280;40965;52.368;9.712;2022-11-30T03:37:13;101483.41;;;4.38;100.00
55068;BME280;40965;52.368;9.712;2022-11-30T03:39:40;101480.63;;;4.32;100.00
55068;BME280;40965;52.368;9.712;2022-11-30T03:42:06;101485.75;;;4.29;100.00
55068;BME280;40965;52.368;9.712;2022-11-30T03:44:33;101489.16;;;4.28;100.00
55068;BME280;40965;52.368;9.712;2022-11-30T03:46:59;101488.22;;;4.26;100.00
55068;BME280;40965;52.368;9.712;2022-11-30T03:49:26;101494.38;;;4.29;100.00
55068;BME280;40965;52.368;9.712;2022-11-30T03:51:52;101495.31;;;4.32;100.00
55068;BME280;40965;52.368;9.712;2022-11-30T03:54:19;101500.44;;;4.30;100.00
55068;BME280;40965;52.368;9.712;2022-11-30T03:56:46;101499.56;;;4.29;100.00
55068;BME280;40965;52.368;9.712;2022-11-30T03:59:12;101496.09;;;4.29;100.00
55068;BME280;40965;52.368;9.712;2022-11-30T04:01:39;101493.50;;;4.29;100.00
55068;BME280;40965;52.368;9.712;2022-11-30T04:04:06;101496.16;;;4.30;100.00
55068;BME280;40965;52.368;9.712;2022-11-30T04:06:32;101498.50;;;4.23;100.00
55068;BME280;40965;52.368;9.712;2022-11-30T04:08:59;101499.41;;;4.25;100.00
55068;BME280;40965;52.368;9.712;2022-11-30T04:11:27;101502.06;;;4.26;100.00
55068;BME280;40965;52.368;9.712;2022-11-30T04:13:53;101501.34;;;4.30;100.00
55068;BME280;40965;52.368;9.712;2022-11-30T04:16:20;101503.13;;;4.33;100.00
55068;BME280;40965;52.368;9.712;2022-11-30T04:18:46;101512.69;;;4.34;100.00
55068;BME280;40965;52.368;9.712;2022-11-30T04:21:13;101509.97;;;4.31;100.00
55068;BME280;40965;52.368;9.712;2022-11-30T04:23:41;101515.97;;;4.30;100.00
55068;BME280;40965;52.368;9.712;2022-11-30T04:26:11;101521.09;;;4.27;100.00
55068;BME280;40965;52.368;9.712;2022-11-30T04:28:39;101516.84;;;4.29;100.00
55068;BME280;40965;52.368;9.712;2022-11-30T04:31:06;101513.34;;;4.28;100.00
55068;BME280;40965;52.368;9.712;2022-11-30T04:33:33;101521.94;;;4.27;100.00
55068;BME280;40965;52.368;9.712;2022-11-30T04:36:02;101520.22;;;4.26;100.00
55068;BME280;40965;52.368;9.712;2022-11-30T04:38:31;101523.72;;;4.28;100.00
55068;BME280;40965;52.368;9.712;2022-11-30T04:40:58;101514.19;;;4.27;100.00
55068;BME280;40965;52.368;9.712;2022-11-30T04:43:26;101510.69;;;4.25;100.00
55068;BME280;40965;52.368;9.712;2022-11-30T04:45:52;101519.31;;;4.26;100.00
55068;BME280;40965;52.368;9.712;2022-11-30T04:48:19;101522.72;;;4.25;100.00
55068;BME280;40965;52.368;9.712;2022-11-30T04:50:47;101518.44;;;4.25;100.00
55068;BME280;40965;52.368;9.712;2022-11-30T04:53:14;101521.09;;;4.27;100.00
55068;BME280;40965;52.368;9.712;2022-11-30T04:55:40;101517.66;;;4.28;100.00
55068;BME280;40965;52.368;9.712;2022-11-30T04:58:07;101527.13;;;4.27;100.00
55068;BME280;40965;52.368;9.712;2022-11-30T05:00:34;101521.88;;;4.24;100.00
55068;BME280;40965;52.368;9.712;2022-11-30T05:03:01;101528.81;;;4.25;100.00
55068;BME280;40965;52.368;9.712;2022-11-30T05:05:32;101527.13;;;4.27;100.00
55068;BME280;40965;52.368;9.712;2022-11-30T05:07:59;101527.13;;;4.27;100.00
55068;BME280;40965;52.368;9.712;2022-11-30T05:10:26;101530.66;;;4.29;100.00
55068;BME280;40965;52.368;9.712;2022-11-30T05:12:55;101530.72;;;4.31;100.00
55068;BME280;40965;52.368;9.712;2022-11-30T05:15:22;101525.53;;;4.31;100.00
55068;BME280;40965;52.368;9.712;2022-11-30T05:17:48;101526.44;;;4.32;100.00
55068;BME280;40965;52.368;9.712;2022-11-30T05:20:18;101532.47;;;4.32;100.00
55068;BME280;40965;52.368;9.712;2022-11-30T05:22:44;101531.59;;;4.32;100.00
55068;BME280;40965;52.368;9.712;2022-11-30T05:25:11;101535.94;;;4.33;100.00
55068;BME280;40965;52.368;9.712;2022-11-30T05:27:38;101540.25;;;4.32;100.00
55068;BME280;40965;52.368;9.712;2022-11-30T05:30:05;101541.13;;;4.33;100.00
55068;BME280;40965;52.368;9.712;2022-11-30T05:32:32;101545.44;;;4.32;100.00
55068;BME280;40965;52.368;9.712;2022-11-30T05:34:58;101546.38;;;4.34;100.00
55068;BME280;40965;52.368;9.712;2022-11-30T05:37:25;101550.66;;;4.34;100.00
55068;BME280;40965;52.368;9.712;2022-11-30T05:39:52;101553.16;;;4.30;100.00
55068;BME280;40965;52.368;9.712;2022-11-30T05:42:18;101548.78;;;4.28;100.00
55068;BME280;40965;52.368;9.712;2022-11-30T05:44:45;101549.56;;;4.25;100.00
55068;BME280;40965;52.368;9.712;2022-11-30T05:47:15;101552.97;;;4.24;100.00
55068;BME280;40965;52.368;9.712;2022-11-30T05:49:42;101554.63;;;4.22;100.00
55068;BME280;40965;52.368;9.712;2022-11-30T05:52:08;101551.13;;;4.20;100.00
55068;BME280;40965;52.368;9.712;2022-11-30T05:54:35;101553.75;;;4.22;100.00
55068;BME280;40965;52.368;9.712;2022-11-30T05:57:01;101555.47;;;4.21;100.00
55068;BME280;40965;52.368;9.712;2022-11-30T05:59:29;101561.56;;;4.23;100.00
55068;BME280;40965;52.368;9.712;2022-11-30T06:01:56;101558.16;;;4.24;100.00
55068;BME280;40965;52.368;9.712;2022-11-30T06:04:22;101557.28;;;4.24;100.00
55068;BME280;40965;52.368;9.712;2022-11-30T06:06:49;101557.28;;;4.24;100.00
55068;BME280;40965;52.368;9.712;2022-11-30T06:09:19;101559.91;;;4.25;100.00
55068;BME280;40965;52.368;9.712;2022-11-30T06:11:46;101565.88;;;4.23;100.00
55068;BME280;40965;52.368;9.712;2022-11-30T06:14:12;101560.75;;;4.24;100.00
55068;BME280;40965;52.368;9.712;2022-11-30T06:16:39;101560.75;;;4.24;100.00
55068;BME280;40965;52.368;9.712;2022-11-30T06:19:06;101565.94;;;4.24;100.00
55068;BME280;40965;52.368;9.712;2022-11-30T06:21:32;101564.28;;;4.26;100.00
55068;BME280;40965;52.368;9.712;2022-11-30T06:23:59;101565.19;;;4.28;100.00
55068;BME280;40965;52.368;9.712;2022-11-30T06:26:28;101570.38;;;4.28;100.00
55068;BME280;40965;52.368;9.712;2022-11-30T06:28:55;101568.69;;;4.29;100.00
55068;BME280;40965;52.368;9.712;2022-11-30T06:31:21;101583.38;;;4.30;100.00
55068;BME280;40965;52.368;9.712;2022-11-30T06:33:48;101574.72;;;4.29;100.00
55068;BME280;40965;52.368;9.712;2022-11-30T06:36:20;101576.50;;;4.30;100.00
55068;BME280;40965;52.368;9.712;2022-11-30T06:38:47;101579.97;;;4.31;100.00
55068;BME280;40965;52.368;9.712;2022-11-30T06:41:14;101581.72;;;4.32;100.00
55068;BME280;40965;52.368;9.712;2022-11-30T06:43:40;101581.72;;;4.32;100.00
55068;BME280;40965;52.368;9.712;2022-11-30T06:46:09;101587.69;;;4.29;100.00
55068;BME280;40965;52.368;9.712;2022-11-30T06:48:36;101594.66;;;4.30;100.00
55068;BME280;40965;52.368;9.712;2022-11-30T06:51:07;101591.09;;;4.28;100.00
55068;BME280;40965;52.368;9.712;2022-11-30T06:53:35;101588.56;;;4.30;100.00
55068;BME280;40965;52.368;9.712;2022-11-30T06:56:08;101588.56;;;4.30;100.00
55068;BME280;40965;52.368;9.712;2022-11-30T06:58:36;101597.28;;;4.32;100.00
55068;BME280;40965;52.368;9.712;2022-11-30T07:01:04;101596.50;;;4.35;100.00
55068;BME280;40965;52.368;9.712;2022-11-30T07:03:33;101602.47;;;4.32;100.00
55068;BME280;40965;52.368;9.712;2022-11-30T07:05:59;101604.97;;;4.29;100.00
55068;BME280;40965;52.368;9.712;2022-11-30T07:08:26;101604.84;;;4.26;100.00
55068;BME280;40965;52.368;9.712;2022-11-30T07:10:52;101606.63;;;4.27;100.00
55068;BME280;40965;52.368;9.712;2022-11-30T07:13:19;101609.22;;;4.27;100.00
55068;BME280;40965;52.368;9.712;2022-11-30T07:15:45;101608.44;;;4.29;100.00
55068;BME280;40965;52.368;9.712;2022-11-30T07:18:12;101614.47;;;4.30;100.00
55068;BME280;40965;52.368;9.712;2022-11-30T07:20:38;101618.78;;;4.29;100.00
55068;BME280;40965;52.368;9.712;2022-11-30T07:23:05;101623.16;;;4.30;100.00
55068;BME280;40965;52.368;9.712;2022-11-30T07:25:50;101618.00;;;4.32;100.00
55068;BME280;40965;52.368;9.712;2022-11-30T07:28:34;101617.19;;;4.33;100.00
55068;BME280;40965;52.368;9.712;2022-11-30T07:31:29;101614.78;;;4.39;100.00
55068;BME280;40965;52.368;9.712;2022-11-30T07:34:02;101620.81;;;4.38;100.00
55068;BME280;40965;52.368;9.712;2022-11-30T07:36:31;101612.19;;;4.39;100.00
55068;BME280;40965;52.368;9.712;2022-11-30T07:38:58;101618.22;;;4.38;100.00
55068;BME280;40965;52.368;9.712;2022-11-30T07:41:25;101616.50;;;4.39;100.00
55068;BME280;40965;52.368;9.712;2022-11-30T07:43:51;101620.03;;;4.41;100.00
55068;BME280;40965;52.368;9.712;2022-11-30T07:46:18;101621.75;;;4.42;100.00
55068;BME280;40965;52.368;9.712;2022-11-30T07:48:46;101624.44;;;4.43;100.00
55068;BME280;40965;52.368;9.712;2022-11-30T07:51:15;101632.13;;;4.42;100.00
55068;BME280;40965;52.368;9.712;2022-11-30T07:53:46;101628.72;;;4.43;100.00
55068;BME280;40965;52.368;9.712;2022-11-30T07:56:15;101634.09;;;4.49;100.00
55068;BME280;40965;52.368;9.712;2022-11-30T07:58:43;101627.16;;;4.48;100.00
55068;BME280;40965;52.368;9.712;2022-11-30T08:01:15;101636.63;;;4.46;100.00
55068;BME280;40965;52.368;9.712;2022-11-30T08:03:44;101637.47;;;4.46;100.00
55068;BME280;40965;52.368;9.712;2022-11-30T08:06:12;101636.69;;;4.49;100.00
55068;BME280;40965;52.368;9.712;2022-11-30T08:08:50;101647.91;;;4.48;100.00
55068;BME280;40965;52.368;9.712;2022-11-30T08:11:20;101645.31;;;4.48;100.00
55068;BME280;40965;52.368;9.712;2022-11-30T08:13:48;101645.34;;;4.50;100.00
55068;BME280;40965;52.368;9.712;2022-11-30T08:16:17;101647.94;;;4.50;100.00
55068;BME280;40965;52.368;9.712;2022-11-30T08:18:45;101648.84;;;4.50;100.00
55068;BME280;40965;52.368;9.712;2022-11-30T08:21:17;101647.13;;;4.51;100.00
55068;BME280;40965;52.368;9.712;2022-11-30T08:23:50;101642.09;;;4.55;100.00
55068;BME280;40965;52.368;9.712;2022-11-30T08:26:32;101641.31;;;4.58;100.00
55068;BME280;40965;52.368;9.712;2022-11-30T08:29:00;101643.91;;;4.58;100.00
55068;BME280;40965;52.368;9.712;2022-11-30T08:31:31;101651.72;;;4.59;100.00
55068;BME280;40965;52.368;9.712;2022-11-30T08:34:10;101650.03;;;4.61;100.00
55068;BME280;40965;52.368;9.712;2022-11-30T08:36:39;101662.09;;;4.59;100.00
55068;BME280;40965;52.368;9.712;2022-11-30T08:39:07;101661.22;;;4.59;100.00
55068;BME280;40965;52.368;9.712;2022-11-30T08:41:40;101658.72;;;4.62;100.00
55068;BME280;40965;52.368;9.712;2022-11-30T08:44:06;101669.97;;;4.62;100.00
55068;BME280;40965;52.368;9.712;2022-11-30T08:46:35;101661.31;;;4.62;100.00
55068;BME280;40965;52.368;9.712;2022-11-30T08:49:04;101665.69;;;4.63;100.00
55068;BME280;40965;52.368;9.712;2022-11-30T08:51:30;101672.69;;;4.66;100.00
55068;BME280;40965;52.368;9.712;2022-11-30T08:53:57;101676.19;;;4.68;100.00
55068;BME280;40965;52.368;9.712;2022-11-30T08:56:24;101678.88;;;4.71;100.00
55068;BME280;40965;52.368;9.712;2022-11-30T08:58:51;101682.31;;;4.70;100.00
55068;BME280;40965;52.368;9.712;2022-11-30T09:01:21;101678.94;;;4.72;100.00
55068;BME280;40965;52.368;9.712;2022-11-30T09:03:52;101685.94;;;4.75;100.00
55068;BME280;40965;52.368;9.712;2022-11-30T09:06:26;101682.56;;;4.77;100.00
55068;BME280;40965;52.368;9.712;2022-11-30T09:08:56;101690.34;;;4.77;100.00
55068;BME280;40965;52.368;9.712;2022-11-30T09:11:34;101687.75;;;4.77;100.00
55068;BME280;40965;52.368;9.712;2022-11-30T09:14:02;101691.25;;;4.79;100.00
55068;BME280;40965;52.368;9.712;2022-11-30T09:16:29;101690.47;;;4.82;100.00
55068;BME280;40965;52.368;9.712;2022-11-30T09:18:56;101693.16;;;4.85;100.00
55068;BME280;40965;52.368;9.712;2022-11-30T09:21:24;101687.25;;;4.89;100.00
55068;BME280;40965;52.368;9.712;2022-11-30T09:23:51;101689.91;;;4.92;100.00
55068;BME280;40965;52.368;9.712;2022-11-30T09:26:19;101693.34;;;4.91;100.00
55068;BME280;40965;52.368;9.712;2022-11-30T09:28:49;101689.09;;;4.93;100.00
55068;BME280;40965;52.368;9.712;2022-11-30T09:31:19;101697.84;;;4.97;100.00
55068;BME280;40965;52.368;9.712;2022-11-30T09:33:50;101691.06;;;5.01;100.00
55068;BME280;40965;52.368;9.712;2022-11-30T09:36:20;101700.50;;;4.99;100.00
55068;BME280;40965;52.368;9.712;2022-11-30T09:38:47;101694.47;;;5.00;100.00
55068;BME280;40965;52.368;9.712;2022-11-30T09:47:37;101691.06;;;5.01;100.00
55068;BME280;40965;52.368;9.712;2022-11-30T09:50:13;101692.03;;;5.06;100.00
55068;BME280;40965;52.368;9.712;2022-11-30T09:52:43;101689.59;;;5.10;100.00
55068;BME280;40965;52.368;9.712;2022-11-30T09:55:17;101689.84;;;5.18;100.00
55068;BME280;40965;52.368;9.712;2022-11-30T09:58:03;101687.50;;;5.27;100.00
55068;BME280;40965;52.368;9.712;2022-11-30T10:00:32;101683.28;;;5.31;100.00
55068;BME280;40965;52.368;9.712;2022-11-30T10:03:03;101685.28;;;5.40;100.00
55068;BME280;40965;52.368;9.712;2022-11-30T10:11:34;101684.31;;;5.36;100.00
55068;BME280;40965;52.368;9.712;2022-11-30T10:14:45;101691.19;;;5.36;100.00
55068;BME280;40965;52.368;9.712;2022-11-30T10:23:34;101686.16;;;5.40;100.00
55068;BME280;40965;52.368;9.712;2022-11-30T10:26:13;101681.94;;;5.44;100.00
55068;BME280;40965;52.368;9.712;2022-11-30T10:31:30;101679.41;;;5.47;100.00
55068;BME280;40965;52.368;9.712;2022-11-30T10:34:18;101683.75;;;5.46;100.00
55068;BME280;40965;52.368;9.712;2022-11-30T10:37:08;101678.56;;;5.46;100.00
55068;BME280;40965;52.368;9.712;2022-11-30T10:39:51;101678.56;;;5.46;100.00
55068;BME280;40965;52.368;9.712;2022-11-30T10:42:43;101684.66;;;5.49;100.00
55068;BME280;40965;52.368;9.712;2022-11-30T10:45:22;101680.31;;;5.47;100.00
55068;BME280;40965;52.368;9.712;2022-11-30T10:48:02;101685.31;;;5.41;100.00
55068;BME280;40965;52.368;9.712;2022-11-30T10:50:39;101683.38;;;5.34;100.00
55068;BME280;40965;52.368;9.712;2022-11-30T10:53:09;101678.09;;;5.31;100.00
55068;BME280;40965;52.368;9.712;2022-11-30T10:55:40;101671.94;;;5.27;100.00
55068;BME280;40965;52.368;9.712;2022-11-30T10:58:29;101681.50;;;5.28;100.00
55068;BME280;40965;52.368;9.712;2022-11-30T11:01:03;101675.47;;;5.29;100.00
55068;BME280;40965;52.368;9.712;2022-11-30T11:03:34;101678.94;;;5.30;100.00
55068;BME280;40965;52.368;9.712;2022-11-30T11:06:22;101681.59;;;5.33;100.00
55068;BME280;40965;52.368;9.712;2022-11-30T11:08:50;101689.47;;;5.35;100.00
55068;BME280;40965;52.368;9.712;2022-11-30T11:11:36;101695.50;;;5.34;100.00
55068;BME280;40965;52.368;9.712;2022-11-30T11:14:16;101690.25;;;5.32;100.00
55068;BME280;40965;52.368;9.712;2022-11-30T11:16:52;101697.09;;;5.30;100.00
55068;BME280;40965;52.368;9.712;2022-11-30T11:19:39;101696.28;;;5.31;100.00
55068;BME280;40965;52.368;9.712;2022-11-30T11:22:22;101700.56;;;5.30;100.00
55068;BME280;40965;52.368;9.712;2022-11-30T11:25:07;101700.63;;;5.32;100.00
55068;BME280;40965;52.368;9.712;2022-11-30T11:27:52;101707.56;;;5.33;100.00
55068;BME280;40965;52.368;9.712;2022-11-30T11:30:29;101705.84;;;5.32;100.00
55068;BME280;40965;52.368;9.712;2022-11-30T11:35:46;101704.16;;;5.34;100.00
55068;BME280;40965;52.368;9.712;2022-11-30T11:38:40;101701.50;;;5.33;100.00
55068;BME280;40965;52.368;9.712;2022-11-30T11:41:25;101705.75;;;5.30;100.00
55068;BME280;40965;52.368;9.712;2022-11-30T11:44:17;101704.03;;;5.29;100.00
55068;BME280;40965;52.368;9.712;2022-11-30T11:46:54;101710.91;;;5.29;100.00
55068;BME280;40965;52.368;9.712;2022-11-30T11:49:26;101702.31;;;5.30;100.00
55068;BME280;40965;52.368;9.712;2022-11-30T11:54:55;101707.50;;;5.30;100.00
55068;BME280;40965;52.368;9.712;2022-11-30T11:57:45;101709.22;;;5.29;100.00
55068;BME280;40965;52.368;9.712;2022-11-30T12:00:16;101700.56;;;5.30;100.00
55068;BME280;40965;52.368;9.712;2022-11-30T12:05:30;101699.66;;;5.28;100.00
55068;BME280;40965;52.368;9.712;2022-11-30T12:08:18;101696.25;;;5.29;100.00
55068;BME280;40965;52.368;9.712;2022-11-30T12:10:58;101697.97;;;5.30;100.00
55068;BME280;40965;52.368;9.712;2022-11-30T12:13:37;101692.78;;;5.30;100.00
55068;BME280;40965;52.368;9.712;2022-11-30T12:19:12;101691.16;;;5.34;100.00
55068;BME280;40965;52.368;9.712;2022-11-30T12:22:08;101703.34;;;5.37;100.00
55068;BME280;40965;52.368;9.712;2022-11-30T12:28:18;101706.06;;;5.40;100.00
55068;BME280;40965;52.368;9.712;2022-11-30T12:36:51;101713.84;;;5.40;100.00
55068;BME280;40965;52.368;9.712;2022-11-30T12:42:42;101715.59;;;5.41;100.00
55068;BME280;40965;52.368;9.712;2022-11-30T12:52:19;101718.75;;;5.30;100.00
55068;BME280;40965;52.368;9.712;2022-11-30T12:55:05;101720.44;;;5.28;100.00
55068;BME280;40965;52.368;9.712;2022-11-30T12:58:15;101719.50;;;5.26;100.00
55068;BME280;40965;52.368;9.712;2022-11-30T13:06:30;101727.19;;;5.23;100.00
55068;BME280;40965;52.368;9.712;2022-11-30T13:09:04;101725.44;;;5.22;100.00
55068;BME280;40965;52.368;9.712;2022-11-30T13:11:48;101726.25;;;5.21;100.00
55068;BME280;40965;52.368;9.712;2022-11-30T13:14:21;101726.22;;;5.20;100.00
55068;BME280;40965;52.368;9.712;2022-11-30T13:16:58;101727.16;;;5.22;100.00
55068;BME280;40965;52.368;9.712;2022-11-30T13:22:41;101727.16;;;5.22;100.00
55068;BME280;40965;52.368;9.712;2022-11-30T13:25:34;101733.22;;;5.22;100.00
55068;BME280;40965;52.368;9.712;2022-11-30T13:28:34;101734.16;;;5.24;100.00
55068;BME280;40965;52.368;9.712;2022-11-30T13:33:58;101732.41;;;5.23;100.00
55068;BME280;40965;52.368;9.712;2022-11-30T13:36:40;101732.44;;;5.25;100.00
55068;BME280;40965;52.368;9.712;2022-11-30T13:41:51;101735.06;;;5.26;100.00
55068;BME280;40965;52.368;9.712;2022-11-30T13:44:41;101730.75;;;5.25;100.00
55068;BME280;40965;52.368;9.712;2022-11-30T13:47:18;101728.97;;;5.24;100.00
55068;BME280;40965;52.368;9.712;2022-11-30T13:58:08;101734.03;;;5.21;100.00
55068;BME280;40965;52.368;9.712;2022-11-30T14:05:54;101730.31;;;5.11;100.00
55068;BME280;40965;52.368;9.712;2022-11-30T14:10:53;101732.91;;;5.11;100.00
55068;BME280;40965;52.368;9.712;2022-11-30T14:13:40;101740.72;;;5.13;100.00
55068;BME280;40965;52.368;9.712;2022-11-30T14:16:34;101738.13;;;5.13;100.00
55068;BME280;40965;52.368;9.712;2022-11-30T14:19:04;101736.47;;;5.15;100.00
55068;BME280;40965;52.368;9.712;2022-11-30T14:21:31;101742.50;;;5.14;100.00
55068;BME280;40965;52.368;9.712;2022-11-30T14:24:13;101737.31;;;5.14;100.00
55068;BME280;40965;52.368;9.712;2022-11-30T14:26:45;101739.78;;;5.11;100.00
55068;BME280;40965;52.368;9.712;2022-11-30T14:29:33;101751.03;;;5.10;100.00
55068;BME280;40965;52.368;9.712;2022-11-30T14:32:11;101750.97;;;5.08;100.00
55068;BME280;40965;52.368;9.712;2022-11-30T14:34:45;101747.53;;;5.09;100.00
55068;BME280;40965;52.368;9.712;2022-11-30T14:37:38;101754.44;;;5.09;100.00
55068;BME280;40965;52.368;9.712;2022-11-30T14:40:07;101750.97;;;5.08;100.00
55068;BME280;40965;52.368;9.712;2022-11-30T14:42:34;101748.44;;;5.10;100.00
55068;BME280;40965;52.368;9.712;2022-11-30T14:45:00;101751.03;;;5.10;100.00
55068;BME280;40965;52.368;9.712;2022-11-30T14:47:33;101744.06;;;5.09;100.00